createdAt,value
2018-02-27T00:00:27.951Z,-8.30
2018-02-27T00:02:54.942Z,-8.10
2018-02-27T00:05:22.714Z,-8.30
2018-02-27T00:07:50.482Z,-8.30
2018-02-27T00:10:17.494Z,-8.40
2018-02-27T00:12:44.498Z,-8.30
2018-02-27T00:15:11.494Z,-8.20
2018-02-27T00:17:39.258Z,-8.50
2018-02-27T00:20:07.030Z,-8.40
2018-02-27T00:22:34.795Z,-8.60
2018-02-27T00:25:02.568Z,-8.30
2018-02-27T00:27:30.330Z,-8.50
2018-02-27T00:29:58.105Z,-8.70
2018-02-27T00:32:25.106Z,-8.40
2018-02-27T00:34:52.134Z,-8.50
2018-02-27T00:37:19.130Z,-8.50
2018-02-27T00:39:46.898Z,-8.30
2018-02-27T00:42:13.906Z,-8.50
2018-02-27T00:44:40.908Z,-8.40
2018-02-27T00:47:07.914Z,-8.50
2018-02-27T00:49:35.678Z,-8.60
2018-02-27T00:52:02.681Z,-8.40
2018-02-27T00:54:30.135Z,-8.60
2018-02-27T00:56:57.587Z,-8.40
2018-02-27T00:59:24.587Z,-8.40
2018-02-27T01:01:52.355Z,-8.70
2018-02-27T01:04:20.119Z,-8.60
2018-02-27T01:06:47.918Z,-8.60
2018-02-27T01:09:14.890Z,-8.50
2018-02-27T01:11:41.905Z,-8.60
2018-02-27T01:14:08.912Z,-8.70
2018-02-27T01:16:36.687Z,-8.80
2018-02-27T01:19:04.450Z,-8.80
2018-02-27T01:21:32.224Z,-8.50
2018-02-27T01:23:59.214Z,-8.50
2018-02-27T01:26:26.221Z,-8.70
2018-02-27T01:28:53.234Z,-8.80
2018-02-27T01:31:21.005Z,-8.80
2018-02-27T01:33:48.775Z,-8.80
2018-02-27T01:36:16.550Z,-8.50
2018-02-27T01:38:43.550Z,-8.60
2018-02-27T01:41:10.552Z,-8.60
2018-02-27T01:43:37.554Z,-8.60
2018-02-27T01:46:04.553Z,-8.40
2018-02-27T01:48:31.566Z,-8.70
2018-02-27T01:51:05.270Z,-8.80
2018-02-27T01:53:33.037Z,-8.80
2018-02-27T01:56:00.046Z,-8.80
2018-02-27T01:58:27.058Z,-8.60
2018-02-27T02:00:54.058Z,-8.60
2018-02-27T02:03:21.830Z,-8.70
2018-02-27T02:05:49.594Z,-8.60
2018-02-27T02:08:17.366Z,-8.50
2018-02-27T02:10:44.365Z,-8.70
2018-02-27T02:13:11.373Z,-8.70
2018-02-27T02:15:38.377Z,-8.70
2018-02-27T02:18:05.386Z,-8.70
2018-02-27T02:20:32.385Z,-8.60
2018-02-27T02:23:00.173Z,-9.00
2018-02-27T02:25:27.162Z,-8.90
2018-02-27T02:27:54.165Z,-9.00
2018-02-27T02:30:21.165Z,-8.80
2018-02-27T02:32:48.179Z,-9.00
2018-02-27T02:35:15.178Z,-9.00
2018-02-27T02:37:42.944Z,-9.00
2018-02-27T02:40:10.715Z,-8.70
2018-02-27T02:42:37.718Z,-9.00
2018-02-27T02:45:04.729Z,-9.00
2018-02-27T02:47:31.726Z,-8.90
2018-02-27T02:49:59.503Z,-8.80
2018-02-27T02:52:28.083Z,-8.80
2018-02-27T02:54:55.853Z,-9.20
2018-02-27T02:57:22.862Z,-9.10
2018-02-27T02:59:49.871Z,-9.10
2018-02-27T03:02:16.870Z,-8.80
2018-02-27T03:04:43.877Z,-9.20
2018-02-27T03:07:10.878Z,-9.10
2018-02-27T03:09:38.650Z,-9.00
2018-02-27T03:12:05.658Z,-9.20
2018-02-27T03:14:32.662Z,-9.30
2018-02-27T03:16:59.662Z,-9.20
2018-02-27T03:19:27.429Z,-9.10
2018-02-27T03:21:55.201Z,-9.10
2018-02-27T03:24:22.957Z,-9.30
2018-02-27T03:26:51.188Z,-9.20
2018-02-27T03:29:18.185Z,-9.20
2018-02-27T03:31:45.947Z,-9.20
2018-02-27T03:34:13.719Z,-9.30
2018-02-27T03:36:40.727Z,-9.40
2018-02-27T03:39:07.732Z,-9.30
2018-02-27T03:41:34.738Z,-9.20
2018-02-27T03:44:02.504Z,-9.20
2018-02-27T03:46:30.277Z,-9.40
2018-02-27T03:48:58.043Z,-9.20
2018-02-27T03:51:25.055Z,-9.40
2018-02-27T03:53:52.054Z,-9.30
2018-02-27T03:56:19.058Z,-9.30
2018-02-27T03:58:46.058Z,-9.40
2018-02-27T04:01:13.063Z,-9.40
2018-02-27T04:03:40.828Z,-9.30
2018-02-27T04:06:08.597Z,-9.60
2018-02-27T04:08:35.603Z,-9.50
2018-02-27T04:11:02.606Z,-9.40
2018-02-27T04:13:29.611Z,-9.50
2018-02-27T04:15:56.622Z,-9.60
2018-02-27T04:18:23.622Z,-9.60
2018-02-27T04:20:51.392Z,-9.70
2018-02-27T04:23:18.402Z,-9.60
2018-02-27T04:25:45.401Z,-9.70
2018-02-27T04:28:12.402Z,-9.60
2018-02-27T04:30:39.416Z,-9.60
2018-02-27T04:33:06.413Z,-9.60
2018-02-27T04:35:33.426Z,-9.60
2018-02-27T04:38:00.421Z,-9.60
2018-02-27T04:40:27.430Z,-9.50
2018-02-27T04:42:54.441Z,-9.50
2018-02-27T04:45:21.466Z,-9.60
2018-02-27T04:47:49.237Z,-9.60
2018-02-27T04:50:16.229Z,-9.80
2018-02-27T04:52:43.243Z,-9.60
2018-02-27T04:55:10.241Z,-9.80
2018-02-27T04:57:38.027Z,-9.70
2018-02-27T05:00:05.030Z,-9.80
2018-02-27T05:02:32.045Z,-9.80
2018-02-27T05:04:59.041Z,-9.70
2018-02-27T05:07:26.814Z,-9.80
2018-02-27T05:09:53.822Z,-10.00
2018-02-27T05:12:20.827Z,-9.80
2018-02-27T05:14:47.836Z,-10.00
2018-02-27T05:17:15.602Z,-9.80
2018-02-27T05:19:43.369Z,-9.80
2018-02-27T05:22:11.155Z,-9.80
2018-02-27T05:24:38.159Z,-9.80
2018-02-27T05:27:05.931Z,-10.00
2018-02-27T05:29:33.698Z,-9.80
2018-02-27T05:32:01.470Z,-9.80
2018-02-27T05:34:28.486Z,-9.80
2018-02-27T05:36:55.502Z,-10.00
2018-02-27T05:39:22.503Z,-9.70
2018-02-27T05:41:50.287Z,-9.80
2018-02-27T05:44:17.275Z,-9.80
2018-02-27T05:46:44.282Z,-9.90
2018-02-27T05:49:11.297Z,-9.90
2018-02-27T05:51:39.058Z,-9.70
2018-02-27T05:54:06.822Z,-9.90
2018-02-27T05:56:34.601Z,-10.00
2018-02-27T05:59:01.600Z,-9.70
2018-02-27T06:01:28.607Z,-10.00
2018-02-27T06:03:55.614Z,-10.00
2018-02-27T06:06:23.382Z,-9.70
2018-02-27T06:08:51.142Z,-9.70
2018-02-27T06:11:18.914Z,-9.70
2018-02-27T06:13:46.687Z,-9.40
2018-02-27T06:16:13.694Z,-9.70
2018-02-27T06:18:40.703Z,-9.30
2018-02-27T06:21:07.701Z,-9.60
2018-02-27T06:23:34.710Z,-9.30
2018-02-27T06:26:01.706Z,-9.70
2018-02-27T06:28:29.483Z,-9.70
2018-02-27T06:30:56.486Z,-9.50
2018-02-27T06:33:23.509Z,-9.50
2018-02-27T06:35:50.498Z,-9.70
2018-02-27T06:38:18.273Z,-9.60
2018-02-27T06:40:46.038Z,-9.40
2018-02-27T06:43:13.824Z,-9.10
2018-02-27T06:45:40.930Z,-9.30
2018-02-27T06:48:07.942Z,-9.20
2018-02-27T06:50:34.942Z,-9.10
2018-02-27T06:53:02.717Z,-8.90
2018-02-27T06:55:29.718Z,-9.00
2018-02-27T06:57:56.722Z,-9.00
2018-02-27T07:00:23.724Z,-8.90
2018-02-27T07:02:50.729Z,-9.00
2018-02-27T07:05:17.732Z,-9.00
2018-02-27T07:07:45.507Z,-8.80
2018-02-27T07:10:12.510Z,-8.80
2018-02-27T07:12:39.518Z,-8.50
2018-02-27T07:15:06.513Z,-8.80
2018-02-27T07:17:33.522Z,-8.50
2018-02-27T07:20:00.522Z,-8.70
2018-02-27T07:22:28.297Z,-8.50
2018-02-27T07:24:55.309Z,-8.40
2018-02-27T07:27:22.322Z,-8.40
2018-02-27T07:29:49.333Z,-8.50
2018-02-27T07:32:16.345Z,-8.30
2018-02-27T07:34:43.359Z,-8.30
2018-02-27T07:37:10.367Z,-8.40
2018-02-27T07:39:37.378Z,-8.40
2018-02-27T07:42:04.378Z,-8.30
2018-02-27T07:44:31.391Z,-8.10
2018-02-27T07:46:59.189Z,-7.80
2018-02-27T07:49:26.969Z,-7.70
2018-02-27T07:51:53.971Z,-7.90
2018-02-27T07:54:21.743Z,-7.30
2018-02-27T07:56:48.746Z,-7.40
2018-02-27T07:59:15.759Z,-7.30
2018-02-27T08:01:43.530Z,-7.10
2018-02-27T08:04:10.588Z,-7.10
2018-02-27T08:06:37.534Z,-7.10
2018-02-27T08:09:04.546Z,-6.90
2018-02-27T08:11:31.554Z,-6.70
2018-02-27T08:13:58.564Z,-7.10
2018-02-27T08:16:25.561Z,-7.00
2018-02-27T08:18:53.330Z,-7.20
2018-02-27T08:21:20.326Z,-7.30
2018-02-27T08:23:47.333Z,-7.50
2018-02-27T08:26:14.342Z,-7.30
2018-02-27T08:28:42.115Z,-7.70
2018-02-27T08:31:09.877Z,-7.50
2018-02-27T08:33:37.650Z,-7.40
2018-02-27T08:36:05.419Z,-6.90
2018-02-27T08:38:32.417Z,-6.80
2018-02-27T08:40:59.414Z,-6.60
2018-02-27T08:43:26.429Z,-6.00
2018-02-27T08:45:53.431Z,-5.40
2018-02-27T08:48:20.430Z,-4.40
2018-02-27T08:50:48.193Z,-3.80
2018-02-27T08:53:15.965Z,-4.50
2018-02-27T08:55:43.730Z,-4.10
2018-02-27T08:58:11.504Z,-3.70
2018-02-27T09:00:38.502Z,-3.90
2018-02-27T09:03:05.515Z,-3.80
2018-02-27T09:05:32.523Z,-3.70
2018-02-27T09:08:00.294Z,-4.30
2018-02-27T09:10:28.069Z,-4.50
2018-02-27T09:12:55.072Z,-4.50
2018-02-27T09:15:22.082Z,-4.30
2018-02-27T09:17:49.090Z,-4.80
2018-02-27T09:20:16.907Z,-4.80
2018-02-27T09:22:43.871Z,-4.70
2018-02-27T09:25:10.879Z,-5.10
2018-02-27T09:27:37.878Z,-5.30
2018-02-27T09:30:05.655Z,-5.70
2018-02-27T09:32:33.422Z,-5.80
2018-02-27T09:35:01.207Z,-5.80
2018-02-27T09:37:28.190Z,-5.80
2018-02-27T09:39:55.193Z,-5.70
2018-02-27T09:42:22.186Z,-5.50
2018-02-27T09:44:49.207Z,-5.50
2018-02-27T09:47:16.192Z,-5.10
2018-02-27T09:49:43.203Z,-5.60
2018-02-27T09:52:10.222Z,-5.70
2018-02-27T09:54:37.218Z,-5.70
2018-02-27T09:57:04.218Z,-5.90
2018-02-27T09:59:31.228Z,-5.40
2018-02-27T10:01:58.997Z,-4.90
2018-02-27T10:04:26.766Z,-5.00
2018-02-27T10:06:54.534Z,-4.80
2018-02-27T10:09:21.549Z,-4.80
2018-02-27T10:11:48.542Z,-5.00
2018-02-27T10:14:15.550Z,-5.00
2018-02-27T10:16:43.318Z,-4.90
2018-02-27T10:19:11.092Z,-4.60
2018-02-27T10:21:38.865Z,-4.80
2018-02-27T10:24:05.869Z,-4.60
2018-02-27T10:26:32.870Z,-4.90
2018-02-27T10:28:59.878Z,-5.20
2018-02-27T10:31:26.881Z,-4.90
2018-02-27T10:33:53.887Z,-5.10
2018-02-27T10:36:20.898Z,-4.80
2018-02-27T10:38:47.903Z,-4.30
2018-02-27T10:41:14.912Z,-3.90
2018-02-27T10:43:42.670Z,-4.80
2018-02-27T10:46:10.446Z,-5.10
2018-02-27T10:48:38.218Z,-4.90
2018-02-27T10:51:05.218Z,-4.80
2018-02-27T10:53:32.224Z,-4.90
2018-02-27T10:55:59.226Z,-4.80
2018-02-27T10:58:26.226Z,-4.70
2018-02-27T11:00:57.177Z,-4.50
2018-02-27T11:03:24.183Z,-4.80
2018-02-27T11:05:51.203Z,-4.70
2018-02-27T11:08:18.214Z,-4.60
2018-02-27T11:10:45.223Z,-4.30
2018-02-27T11:13:12.218Z,-4.80
2018-02-27T11:15:39.227Z,-4.70
2018-02-27T11:18:06.225Z,-4.70
2018-02-27T11:20:33.242Z,-4.90
2018-02-27T11:23:00.250Z,-4.70
2018-02-27T11:25:27.257Z,-4.50
2018-02-27T11:27:54.267Z,-4.80
2018-02-27T11:30:21.275Z,-4.80
2018-02-27T11:32:49.042Z,-4.30
2018-02-27T11:35:16.822Z,-3.10
2018-02-27T11:37:43.819Z,-3.30
2018-02-27T11:40:10.826Z,-3.40
2018-02-27T11:42:37.835Z,-3.70
2018-02-27T11:45:05.602Z,-3.70
2018-02-27T11:47:33.366Z,-3.30
2018-02-27T11:50:01.154Z,-3.00
2018-02-27T11:52:28.142Z,-3.00
2018-02-27T11:54:55.607Z,-2.10
2018-02-27T11:57:22.610Z,-1.60
2018-02-27T11:59:49.606Z,-1.20
2018-02-27T12:02:17.388Z,-3.20
2018-02-27T12:04:44.840Z,-3.20
2018-02-27T12:07:12.310Z,-2.50
2018-02-27T12:09:39.767Z,-1.90
2018-02-27T12:12:07.230Z,-1.30
2018-02-27T12:14:34.678Z,-0.60
2018-02-27T12:17:01.693Z,-0.40
2018-02-27T12:19:28.705Z,-1.10
2018-02-27T12:21:55.707Z,-0.60
2018-02-27T12:24:23.155Z,-0.70
2018-02-27T12:26:51.371Z,0.00
2018-02-27T12:29:18.410Z,-0.20
2018-02-27T12:31:46.146Z,-0.60
2018-02-27T12:34:13.150Z,-0.80
2018-02-27T12:36:40.620Z,-0.90
2018-02-27T12:39:08.066Z,-0.20
2018-02-27T12:41:35.523Z,0.20
2018-02-27T12:44:02.518Z,0.00
2018-02-27T12:46:29.526Z,-1.70
2018-02-27T12:48:56.529Z,-2.60
2018-02-27T12:51:23.531Z,-3.00
2018-02-27T12:53:51.304Z,-2.20
2018-02-27T12:56:19.079Z,-2.50
2018-02-27T12:58:46.078Z,-2.40
2018-02-27T13:01:13.092Z,-3.40
2018-02-27T13:03:40.096Z,-3.20
2018-02-27T13:06:07.862Z,-3.20
2018-02-27T13:08:35.635Z,-3.20
2018-02-27T13:11:03.402Z,-3.50
2018-02-27T13:13:30.410Z,-3.70
2018-02-27T13:15:57.412Z,-3.30
2018-02-27T13:18:24.410Z,-2.60
2018-02-27T13:20:51.425Z,-2.20
2018-02-27T13:23:18.431Z,-1.30
2018-02-27T13:25:45.439Z,-1.50
2018-02-27T13:28:12.463Z,-1.70
2018-02-27T13:30:39.506Z,-1.30
2018-02-27T13:33:06.936Z,-1.40
2018-02-27T13:35:33.942Z,-0.70
2018-02-27T13:38:00.958Z,-0.60
2018-02-27T13:40:28.558Z,-1.00
2018-02-27T13:42:56.335Z,-1.40
2018-02-27T13:45:24.099Z,-0.90
2018-02-27T13:47:51.125Z,-0.90
2018-02-27T13:50:18.098Z,-1.10
2018-02-27T13:52:45.106Z,-1.70
2018-02-27T13:55:12.110Z,-2.20
2018-02-27T13:57:39.119Z,-2.70
2018-02-27T14:00:06.880Z,-2.90
2018-02-27T14:02:34.655Z,-3.30
2018-02-27T14:05:01.658Z,-3.10
2018-02-27T14:07:28.666Z,-3.10
2018-02-27T14:09:55.665Z,-3.30
2018-02-27T14:12:22.678Z,-2.80
2018-02-27T14:14:49.675Z,-2.40
2018-02-27T14:17:17.447Z,-2.00
2018-02-27T14:19:44.452Z,-2.00
2018-02-27T14:22:11.465Z,-2.40
2018-02-27T14:24:38.458Z,-2.70
2018-02-27T14:27:05.475Z,-3.00
2018-02-27T14:29:32.470Z,-2.80
2018-02-27T14:32:00.274Z,-3.40
2018-02-27T14:34:27.270Z,-3.60
2018-02-27T14:36:55.037Z,-3.30
2018-02-27T14:39:22.805Z,-3.30
2018-02-27T14:41:50.595Z,-3.50
2018-02-27T14:44:17.590Z,-3.50
2018-02-27T14:46:44.586Z,-3.40
2018-02-27T14:49:11.591Z,-3.50
2018-02-27T14:51:39.357Z,-4.10
2018-02-27T14:54:07.139Z,-3.60
2018-02-27T14:56:34.146Z,-3.70
2018-02-27T14:59:01.144Z,-3.40
2018-02-27T15:01:28.157Z,-3.60
2018-02-27T15:03:55.922Z,-4.00
2018-02-27T15:06:23.690Z,-4.00
2018-02-27T15:08:51.454Z,-4.00
2018-02-27T15:11:19.221Z,-3.90
2018-02-27T15:13:46.995Z,-4.10
2018-02-27T15:16:14.002Z,-4.10
2018-02-27T15:18:41.007Z,-4.10
2018-02-27T15:21:08.014Z,-4.30
2018-02-27T15:23:35.777Z,-4.50
2018-02-27T15:26:03.550Z,-4.50
2018-02-27T15:28:31.327Z,-4.60
2018-02-27T15:30:58.325Z,-4.50
2018-02-27T15:33:25.355Z,-4.50
2018-02-27T15:35:52.346Z,-4.10
2018-02-27T15:38:20.118Z,-4.40
2018-02-27T15:40:47.134Z,-4.50
2018-02-27T15:43:14.175Z,-4.70
2018-02-27T15:45:41.170Z,-4.70
2018-02-27T15:48:08.180Z,-5.00
2018-02-27T15:50:35.951Z,-5.00
2018-02-27T15:53:03.718Z,-4.80
2018-02-27T15:55:31.486Z,-4.70
2018-02-27T15:57:59.256Z,-4.90
2018-02-27T16:00:26.265Z,-4.90
2018-02-27T16:02:53.265Z,-5.00
2018-02-27T16:05:20.270Z,-5.00
2018-02-27T16:07:47.315Z,-5.00
2018-02-27T16:10:14.282Z,-5.00
2018-02-27T16:12:42.051Z,-5.00
2018-02-27T16:15:09.076Z,-5.10
2018-02-27T16:17:36.833Z,-5.10
2018-02-27T16:20:03.847Z,-5.30
2018-02-27T16:22:30.842Z,-5.20
2018-02-27T16:24:58.626Z,-5.30
2018-02-27T16:27:25.634Z,-5.30
2018-02-27T16:29:52.654Z,-5.40
2018-02-27T16:32:19.639Z,-5.30
2018-02-27T16:34:47.410Z,-5.40
2018-02-27T16:37:15.171Z,-5.50
2018-02-27T16:39:42.942Z,-5.70
2018-02-27T16:42:09.975Z,-5.70
2018-02-27T16:44:37.742Z,-5.40
2018-02-27T16:47:05.506Z,-5.50
2018-02-27T16:49:33.282Z,-5.70
2018-02-27T16:52:00.294Z,-5.40
2018-02-27T16:54:27.313Z,-5.70
2018-02-27T16:56:54.324Z,-5.80
2018-02-27T16:59:21.326Z,-5.70
2018-02-27T17:01:48.325Z,-5.80
2018-02-27T17:04:15.330Z,-5.60
2018-02-27T17:06:42.352Z,-5.70
2018-02-27T17:09:09.350Z,-5.90
2018-02-27T17:11:36.351Z,-5.90
2018-02-27T17:14:03.357Z,-5.90
2018-02-27T17:16:30.359Z,-5.90
2018-02-27T17:18:57.374Z,-6.00
2018-02-27T17:21:24.382Z,-6.10
2018-02-27T17:23:51.382Z,-5.90
2018-02-27T17:26:18.454Z,-6.00
2018-02-27T17:28:46.223Z,-5.80
2018-02-27T17:31:13.986Z,-6.10
2018-02-27T17:33:41.762Z,-5.80
2018-02-27T17:36:08.766Z,-5.90
2018-02-27T17:38:35.771Z,-6.10
2018-02-27T17:41:02.790Z,-6.10
2018-02-27T17:43:30.555Z,-6.30
2018-02-27T17:45:58.383Z,-6.00
2018-02-27T17:48:25.385Z,-6.20
2018-02-27T17:50:52.393Z,-6.30
2018-02-27T17:53:20.159Z,-6.40
2018-02-27T17:55:47.938Z,-6.40
2018-02-27T17:58:15.707Z,-6.20
2018-02-27T18:00:43.245Z,-6.50
2018-02-27T18:03:11.013Z,-6.30
2018-02-27T18:05:39.702Z,-6.60
2018-02-27T18:08:08.789Z,-6.70
2018-02-27T18:10:36.559Z,-6.80
2018-02-27T18:13:05.451Z,-6.40
2018-02-27T18:15:33.209Z,-6.50
2018-02-27T18:18:00.971Z,-6.50
2018-02-27T18:20:28.751Z,-6.70
2018-02-27T18:22:57.923Z,-6.80
2018-02-27T18:25:25.696Z,-6.30
2018-02-27T18:27:53.460Z,-6.50
2018-02-27T18:30:21.526Z,-6.30
2018-02-27T18:32:49.295Z,-6.50
2018-02-27T18:35:18.643Z,-6.50
2018-02-27T18:37:45.634Z,-6.60
2018-02-27T18:40:13.411Z,-6.60
2018-02-27T18:42:40.430Z,-6.50
2018-02-27T18:45:07.431Z,-6.70
2018-02-27T18:47:34.471Z,-6.60
2018-02-27T18:50:01.487Z,-6.90
2018-02-27T18:52:29.251Z,-6.90
2018-02-27T18:54:57.022Z,-7.10
2018-02-27T18:57:24.785Z,-7.00
2018-02-27T18:59:51.796Z,-7.20
2018-02-27T19:02:18.810Z,-6.90
2018-02-27T19:04:45.826Z,-7.10
2018-02-27T19:07:12.838Z,-7.20
2018-02-27T19:09:39.838Z,-7.40
2018-02-27T19:12:06.936Z,-7.70
2018-02-27T19:14:34.746Z,-7.70
2018-02-27T19:17:01.750Z,-7.70
2018-02-27T19:19:28.759Z,-7.80
2018-02-27T19:21:55.766Z,-7.50
2018-02-27T19:24:22.774Z,-7.70
2018-02-27T19:26:50.566Z,-7.70
2018-02-27T19:29:18.335Z,-7.90
2018-02-27T19:31:45.343Z,-7.90
2018-02-27T19:34:12.333Z,-7.70
2018-02-27T19:36:39.350Z,-7.90
2018-02-27T19:39:07.129Z,-7.80
2018-02-27T19:41:34.913Z,-7.90
2018-02-27T19:44:01.922Z,-7.80
2018-02-27T19:46:28.941Z,-8.00
2018-02-27T19:48:55.935Z,-7.80
2018-02-27T19:51:23.116Z,-8.20
2018-02-27T19:53:50.140Z,-8.00
2018-02-27T19:56:17.145Z,-8.00
2018-02-27T19:58:44.143Z,-8.30
2018-02-27T20:01:12.199Z,-8.10
2018-02-27T20:03:39.377Z,-8.10
2018-02-27T20:06:06.610Z,-8.40
2018-02-27T20:08:33.627Z,-8.10
2018-02-27T20:11:01.469Z,-8.30
2018-02-27T20:13:28.422Z,-8.40
2018-02-27T20:15:55.441Z,-8.30
2018-02-27T20:18:25.223Z,-8.40
2018-02-27T20:20:52.247Z,-8.50
2018-02-27T20:23:25.850Z,-8.70
2018-02-27T20:25:53.135Z,-8.70
2018-02-27T20:28:26.009Z,-8.60
2018-02-27T20:30:53.234Z,-8.30
2018-02-27T20:33:20.387Z,-8.70
2018-02-27T20:35:47.463Z,-8.70
2018-02-27T20:38:14.497Z,-8.90
2018-02-27T20:40:41.493Z,-8.60
2018-02-27T20:43:08.589Z,-8.80
2018-02-27T20:45:35.966Z,-8.70
2018-02-27T20:48:03.995Z,-8.60
2018-02-27T20:50:31.070Z,-8.80
2018-02-27T20:52:58.062Z,-8.90
2018-02-27T20:55:25.074Z,-8.60
2018-02-27T20:57:52.092Z,-8.90
2018-02-27T21:00:19.086Z,-8.80
2018-02-27T21:02:46.100Z,-8.60
2018-02-27T21:05:13.147Z,-8.70
2018-02-27T21:07:40.146Z,-9.00
2018-02-27T21:10:07.901Z,-9.10
2018-02-27T21:12:35.674Z,-9.40
2018-02-27T21:15:03.439Z,-9.10
2018-02-27T21:17:31.209Z,-9.40
2018-02-27T21:19:59.282Z,-9.10
2018-02-27T21:22:26.293Z,-9.50
2018-02-27T21:24:53.292Z,-9.20
2018-02-27T21:27:20.309Z,-9.40
2018-02-27T21:29:48.078Z,-9.30
2018-02-27T21:32:15.851Z,-9.50
2018-02-27T21:34:42.854Z,-9.50
2018-02-27T21:37:09.858Z,-9.50
2018-02-27T21:39:36.868Z,-9.70
2018-02-27T21:42:04.651Z,-9.70
2018-02-27T21:44:32.405Z,-9.50
2018-02-27T21:47:00.174Z,-9.40
2018-02-27T21:49:27.175Z,-9.30
2018-02-27T21:51:54.192Z,-9.40
2018-02-27T21:54:21.190Z,-9.70
2018-02-27T21:56:48.206Z,-9.50
2018-02-27T21:59:15.211Z,-9.90
2018-02-27T22:01:42.210Z,-9.90
2018-02-27T22:04:09.221Z,-9.80
2018-02-27T22:06:36.223Z,-10.00
2018-02-27T22:09:04.011Z,-9.80
2018-02-27T22:11:31.007Z,-10.00
2018-02-27T22:13:58.011Z,-9.70
2018-02-27T22:16:25.020Z,-10.00
2018-02-27T22:18:52.794Z,-10.10
2018-02-27T22:21:20.554Z,-10.00
2018-02-27T22:23:48.331Z,-10.10
2018-02-27T22:26:15.360Z,-10.00
2018-02-27T22:28:43.126Z,-10.20
2018-02-27T22:31:10.898Z,-10.20
2018-02-27T22:33:37.919Z,-10.10
2018-02-27T22:36:04.912Z,-10.00
2018-02-27T22:38:31.922Z,-10.10
2018-02-27T22:40:59.694Z,-10.40
2018-02-27T22:43:27.462Z,-10.20
2018-02-27T22:45:55.258Z,-10.30
2018-02-27T22:48:22.267Z,-10.40
2018-02-27T22:50:50.043Z,-10.20
2018-02-27T22:53:17.059Z,-10.30
2018-02-27T22:55:44.076Z,-10.50
2018-02-27T22:58:11.080Z,-10.50
2018-02-27T23:00:39.877Z,-10.50
2018-02-27T23:03:06.897Z,-10.30
2018-02-27T23:05:35.112Z,-10.20
2018-02-27T23:08:02.563Z,-10.20
2018-02-27T23:10:30.023Z,-10.70
2018-02-27T23:12:57.475Z,-10.60
2018-02-27T23:15:24.931Z,-10.70
2018-02-27T23:17:52.387Z,-10.50
2018-02-27T23:20:19.855Z,-10.50
2018-02-27T23:22:46.861Z,-10.90
2018-02-27T23:25:14.773Z,-10.90
2018-02-27T23:27:41.838Z,-10.80
2018-02-27T23:30:08.901Z,-10.80
2018-02-27T23:32:36.666Z,-10.70
2018-02-27T23:35:07.336Z,-10.90
2018-02-27T23:37:34.306Z,-10.80
2018-02-27T23:40:01.320Z,-10.90
2018-02-27T23:42:28.323Z,-10.80
2018-02-27T23:44:55.330Z,-10.60
2018-02-27T23:47:23.107Z,-11.00
2018-02-27T23:49:50.114Z,-10.90
2018-02-27T23:52:17.118Z,-11.10
2018-02-27T23:54:44.130Z,-11.10
2018-02-27T23:57:11.130Z,-11.10
2018-02-27T23:59:38.902Z,-11.00
